Time;durP1;ratioP1;P1;durP2;ratioP2;P2;SDS_P1;SDS_P2;PMS_P1;PMS_P2;Temp;Humidity;BMP_temperature;BMP_pressure;BME280_temperature;BME280_humidity;BME280_pressure;Samples;Min_cycle;Max_cycle;Signal;HPM_P1;HPM_P2
2022/12/24 00:04:56;;;;;;;13.80;9.25;;;;;;;;;;10321467;28;20491;-61
2022/12/24 00:09:56;;;;;;;14.23;9.43;;;;;;;;;;10321634;28;20022;-60
2022/12/24 00:14:57;;;;;;;16.65;9.35;;;;;;;;;;10325685;28;20034;-60
2022/12/24 00:19:57;;;;;;;12.70;8.32;;;;;;;;;;10325963;28;20081;-62
2022/12/24 00:24:57;;;;;;;11.27;8.65;;;;;;;;;;10325718;28;20426;-62
2022/12/24 00:29:57;;;;;;;14.73;9.15;;;;;;;;;;10326208;28;20110;-60
2022/12/24 00:34:58;;;;;;;16.50;8.65;;;;;;;;;;10321148;28;20037;-60
2022/12/24 00:39:58;;;;;;;14.80;7.93;;;;;;;;;;10322942;28;20033;-60
2022/12/24 00:44:58;;;;;;;15.20;9.52;;;;;;;;;;10301196;28;20027;-61
2022/12/24 00:49:58;;;;;;;21.42;9.57;;;;;;;;;;10322073;28;20390;-60
2022/12/24 00:54:59;;;;;;;17.35;9.20;;;;;;;;;;10318760;28;20030;-60
2022/12/24 00:59:59;;;;;;;15.40;8.68;;;;;;;;;;10324033;28;20062;-60
2022/12/24 01:05:11;;;;;;;13.57;8.60;;;;;;;;;;10316767;28;20022;-60
2022/12/24 01:10:13;;;;;;;19.30;8.85;;;;;;;;;;10324105;28;20030;-61
2022/12/24 01:15:14;;;;;;;13.15;7.55;;;;;;;;;;10321762;28;20038;-62
2022/12/24 01:20:15;;;;;;;11.60;8.50;;;;;;;;;;10314606;28;20042;-61
2022/12/24 01:25:15;;;;;;;10.55;7.68;;;;;;;;;;10321270;28;20112;-60
2022/12/24 01:30:16;;;;;;;11.90;8.57;;;;;;;;;;10318943;28;20042;-60
2022/12/24 01:35:16;;;;;;;15.02;8.65;;;;;;;;;;10308938;28;20513;-60
2022/12/24 01:45:36;;;;;;;13.18;8.10;;;;;;;;;;10312392;28;20039;-60
2022/12/24 01:50:36;;;;;;;11.73;7.45;;;;;;;;;;10311513;28;20031;-60
2022/12/24 01:55:36;;;;;;;9.40;7.03;;;;;;;;;;10305799;28;20027;-60
2022/12/24 02:00:37;;;;;;;10.67;7.17;;;;;;;;;;10311129;28;20030;-61
2022/12/24 02:05:47;;;;;;;11.43;7.80;;;;;;;;;;10301320;28;20076;-60
2022/12/24 02:10:48;;;;;;;12.10;8.30;;;;;;;;;;10312003;28;20055;-60
2022/12/24 02:15:51;;;;;;;12.90;7.35;;;;;;;;;;10319932;28;20113;-60
2022/12/24 02:21:09;;;;;;;8.68;6.47;;;;;;;;;;10319489;28;20097;-60
2022/12/24 02:26:48;;;;;;;9.87;7.53;;;;;;;;;;10318690;28;20899;-61
2022/12/24 02:31:54;;;;;;;8.73;6.93;;;;;;;;;;10244083;28;20359;-60
2022/12/24 02:36:58;;;;;;;11.63;7.45;;;;;;;;;;10246115;29;20287;-61
2022/12/24 02:42:04;;;;;;;9.52;7.35;;;;;;;;;;10245842;28;20070;-60
2022/12/24 02:47:06;;;;;;;10.35;7.28;;;;;;;;;;10248613;29;20039;-60
2022/12/24 02:52:06;;;;;;;9.48;7.05;;;;;;;;;;10246513;28;20122;-61
2022/12/24 02:57:33;;;;;;;11.95;7.97;;;;;;;;;;10247323;28;20403;-61
2022/12/24 03:02:39;;;;;;;9.32;6.65;;;;;;;;;;10290675;28;20548;-61
2022/12/24 03:08:05;;;;;;;9.65;6.82;;;;;;;;;;10322970;28;20034;-60
2022/12/24 03:13:14;;;;;;;8.15;6.72;;;;;;;;;;10317545;28;20102;-60
2022/12/24 03:18:15;;;;;;;13.13;6.40;;;;;;;;;;10318998;28;20034;-60
2022/12/24 03:23:16;;;;;;;9.05;6.65;;;;;;;;;;10324567;28;20226;-61
2022/12/24 03:28:17;;;;;;;9.40;6.27;;;;;;;;;;10326405;28;20621;-60
2022/12/24 03:33:17;;;;;;;9.13;6.30;;;;;;;;;;10326131;28;20505;-60
2022/12/24 03:38:17;;;;;;;9.13;6.63;;;;;;;;;;10329481;28;20080;-60
2022/12/24 03:43:18;;;;;;;10.02;6.38;;;;;;;;;;10319993;28;20038;-60
2022/12/24 03:48:18;;;;;;;9.40;6.63;;;;;;;;;;10307923;28;20038;-60
2022/12/24 03:53:18;;;;;;;9.85;6.43;;;;;;;;;;10303535;28;20038;-62
2022/12/24 03:58:19;;;;;;;7.43;6.13;;;;;;;;;;10302757;28;20496;-61
2022/12/24 04:03:20;;;;;;;9.77;5.85;;;;;;;;;;10314560;28;20034;-61
2022/12/24 04:08:20;;;;;;;10.40;5.73;;;;;;;;;;10326568;28;20037;-61
2022/12/24 04:13:20;;;;;;;8.60;6.20;;;;;;;;;;10319255;28;20019;-61
2022/12/24 04:18:20;;;;;;;8.68;6.38;;;;;;;;;;10309792;28;20031;-61
2022/12/24 04:23:21;;;;;;;7.43;5.80;;;;;;;;;;10307413;28;20031;-63
2022/12/24 04:28:21;;;;;;;7.25;5.68;;;;;;;;;;10319624;28;20054;-63
2022/12/24 04:33:21;;;;;;;7.88;6.15;;;;;;;;;;10325373;28;20117;-63
2022/12/24 04:38:22;;;;;;;7.53;6.07;;;;;;;;;;10296614;28;20434;-63
2022/12/24 04:43:22;;;;;;;8.88;5.90;;;;;;;;;;10312243;28;20558;-63
2022/12/24 04:48:23;;;;;;;7.55;5.93;;;;;;;;;;10322110;28;20022;-62
2022/12/24 04:53:23;;;;;;;9.90;5.85;;;;;;;;;;10316329;28;20513;-63
2022/12/24 04:58:23;;;;;;;6.67;5.47;;;;;;;;;;10319433;28;20525;-63
2022/12/24 05:03:23;;;;;;;7.07;5.28;;;;;;;;;;10309618;28;20491;-63
2022/12/24 05:08:24;;;;;;;9.18;5.88;;;;;;;;;;10323445;28;20042;-63
2022/12/24 05:13:24;;;;;;;7.63;5.82;;;;;;;;;;10314289;28;20479;-62
2022/12/24 05:18:24;;;;;;;6.57;5.38;;;;;;;;;;10317111;28;20042;-63
2022/12/24 05:28:43;;;;;;;8.77;5.53;;;;;;;;;;10318055;28;20042;-61
2022/12/24 05:33:44;;;;;;;6.93;5.40;;;;;;;;;;10314256;28;20027;-60
2022/12/24 05:38:44;;;;;;;6.85;5.38;;;;;;;;;;10317274;28;20077;-61
2022/12/24 05:43:44;;;;;;;6.65;5.20;;;;;;;;;;10322579;28;20113;-61
2022/12/24 05:48:45;;;;;;;6.13;4.97;;;;;;;;;;10322875;28;20026;-60
2022/12/24 05:53:46;;;;;;;6.90;5.03;;;;;;;;;;10322524;28;20022;-60
2022/12/24 05:58:46;;;;;;;5.90;5.00;;;;;;;;;;10321457;28;20026;-60
2022/12/24 06:03:48;;;;;;;6.55;5.18;;;;;;;;;;10323581;28;20042;-60
2022/12/24 06:08:49;;;;;;;6.72;4.78;;;;;;;;;;10309967;28;20018;-61
2022/12/24 06:13:49;;;;;;;6.60;5.47;;;;;;;;;;10290345;28;20026;-61
2022/12/24 06:18:50;;;;;;;5.78;4.95;;;;;;;;;;10317698;28;20053;-60
2022/12/24 06:23:50;;;;;;;7.20;5.40;;;;;;;;;;10314274;28;20034;-60
2022/12/24 06:28:51;;;;;;;5.88;4.50;;;;;;;;;;10318956;28;20116;-60
2022/12/24 06:33:52;;;;;;;6.18;4.47;;;;;;;;;;10318521;28;20049;-60
2022/12/24 06:38:53;;;;;;;6.73;4.77;;;;;;;;;;10315996;28;20032;-60
2022/12/24 06:43:53;;;;;;;8.73;4.85;;;;;;;;;;10314704;28;20038;-60
2022/12/24 06:48:54;;;;;;;6.32;4.72;;;;;;;;;;10308703;28;20433;-60
2022/12/24 06:53:54;;;;;;;6.03;4.40;;;;;;;;;;10311945;28;20113;-60
2022/12/24 06:58:54;;;;;;;6.85;5.07;;;;;;;;;;10308750;28;20038;-60
2022/12/24 07:03:54;;;;;;;6.88;4.90;;;;;;;;;;10309854;28;20540;-60
2022/12/24 07:08:55;;;;;;;6.45;4.82;;;;;;;;;;10314508;28;20413;-60
2022/12/24 07:13:55;;;;;;;6.47;4.50;;;;;;;;;;10312151;28;20494;-60
2022/12/24 07:18:56;;;;;;;5.75;4.32;;;;;;;;;;10315441;28;20045;-60
2022/12/24 07:23:56;;;;;;;7.07;4.60;;;;;;;;;;10325508;28;20979;-60
2022/12/24 07:28:57;;;;;;;7.05;4.65;;;;;;;;;;10325667;28;20058;-63
2022/12/24 07:33:57;;;;;;;7.25;4.70;;;;;;;;;;10316190;28;20474;-63
2022/12/24 07:38:57;;;;;;;10.63;4.50;;;;;;;;;;10317030;28;20105;-61
2022/12/24 07:43:57;;;;;;;4.88;4.20;;;;;;;;;;10314020;28;20038;-61
2022/12/24 07:48:58;;;;;;;9.40;3.97;;;;;;;;;;10326110;28;20022;-62
2022/12/24 07:53:58;;;;;;;21.00;5.18;;;;;;;;;;10317311;28;20494;-60
2022/12/24 07:58:58;;;;;;;7.43;4.00;;;;;;;;;;10324965;28;20046;-63
2022/12/24 08:03:59;;;;;;;10.75;4.75;;;;;;;;;;10325197;28;20138;-62
2022/12/24 08:08:59;;;;;;;7.03;3.92;;;;;;;;;;10319892;28;20096;-62
2022/12/24 08:13:59;;;;;;;5.25;4.28;;;;;;;;;;10326170;28;20037;-63
2022/12/24 08:19:00;;;;;;;12.53;4.90;;;;;;;;;;10320486;28;20031;-59
2022/12/24 08:24:00;;;;;;;7.50;4.47;;;;;;;;;;10325498;28;20465;-61
2022/12/24 08:29:01;;;;;;;15.10;4.88;;;;;;;;;;10304387;28;20057;-60
2022/12/24 08:34:04;;;;;;;12.98;4.43;;;;;;;;;;10313345;28;20124;-62
2022/12/24 08:39:07;;;;;;;5.50;4.28;;;;;;;;;;10305503;28;20111;-58
2022/12/24 08:44:07;;;;;;;11.40;4.50;;;;;;;;;;10302380;28;20038;-57
2022/12/24 08:49:08;;;;;;;22.83;11.87;;;;;;;;;;10316376;28;20034;-59
2022/12/24 08:54:08;;;;;;;25.70;15.52;;;;;;;;;;10313872;28;20074;-59
2022/12/24 08:59:09;;;;;;;25.17;15.82;;;;;;;;;;10316209;28;20033;-58
2022/12/24 09:04:10;;;;;;;28.88;16.90;;;;;;;;;;10323665;28;20062;-58
2022/12/24 09:09:10;;;;;;;25.57;17.07;;;;;;;;;;10317068;28;20121;-58
2022/12/24 09:14:10;;;;;;;24.85;15.95;;;;;;;;;;10317838;28;20122;-59
2022/12/24 09:19:11;;;;;;;27.10;11.47;;;;;;;;;;10311080;28;20018;-60
2022/12/24 09:24:11;;;;;;;14.13;11.05;;;;;;;;;;10303670;28;20133;-61
2022/12/24 09:29:11;;;;;;;13.87;9.63;;;;;;;;;;10307548;28;20492;-61
2022/12/24 09:34:11;;;;;;;20.88;7.88;;;;;;;;;;10311888;28;20460;-60
2022/12/24 09:39:12;;;;;;;23.27;8.00;;;;;;;;;;10310831;28;20482;-61
2022/12/24 09:44:28;;;;;;;12.55;7.47;;;;;;;;;;10323877;28;20586;-60
2022/12/24 09:49:35;;;;;;;16.10;7.85;;;;;;;;;;10321807;28;20030;-60
2022/12/24 09:54:46;;;;;;;19.55;8.32;;;;;;;;;;10316121;28;20110;-60
2022/12/24 09:59:46;;;;;;;24.38;10.52;;;;;;;;;;10315476;28;20102;-60
2022/12/24 10:04:47;;;;;;;17.50;8.00;;;;;;;;;;10318528;28;20450;-60
2022/12/24 10:09:56;;;;;;;15.23;8.77;;;;;;;;;;10316562;28;20059;-60
2022/12/24 10:14:56;;;;;;;13.68;6.95;;;;;;;;;;10312871;28;20038;-60
2022/12/24 10:19:57;;;;;;;10.73;6.88;;;;;;;;;;10306900;28;20030;-60
2022/12/24 10:24:57;;;;;;;10.68;7.22;;;;;;;;;;10307147;28;20022;-60
2022/12/24 10:30:01;;;;;;;14.50;7.65;;;;;;;;;;10328339;28;20482;-61
2022/12/24 10:35:16;;;;;;;12.65;7.55;;;;;;;;;;10324844;28;20045;-60
2022/12/24 10:40:22;;;;;;;11.07;7.85;;;;;;;;;;10330212;28;20066;-60
2022/12/24 10:45:24;;;;;;;11.38;6.30;;;;;;;;;;10320947;28;20477;-60
2022/12/24 10:50:34;;;;;;;10.27;6.68;;;;;;;;;;10326793;28;20023;-59
2022/12/24 10:55:34;;;;;;;9.18;6.90;;;;;;;;;;10329469;28;20173;-60
2022/12/24 11:00:36;;;;;;;8.47;6.23;;;;;;;;;;10330261;28;20571;-60
2022/12/24 11:05:36;;;;;;;10.05;6.05;;;;;;;;;;10327738;28;20452;-60
2022/12/24 11:10:39;;;;;;;10.18;6.63;;;;;;;;;;10317921;28;20030;-61
2022/12/24 11:15:39;;;;;;;12.43;6.95;;;;;;;;;;10305714;28;20030;-60
2022/12/24 11:20:40;;;;;;;12.55;7.32;;;;;;;;;;10329218;28;20027;-61
2022/12/24 11:25:45;;;;;;;9.55;5.97;;;;;;;;;;10329423;28;20042;-60
2022/12/24 11:31:00;;;;;;;7.90;6.30;;;;;;;;;;10316053;28;20549;-60
2022/12/24 11:36:03;;;;;;;9.60;6.32;;;;;;;;;;10314001;28;20034;-60
2022/12/24 11:41:03;;;;;;;8.25;6.45;;;;;;;;;;10316450;28;20538;-60
2022/12/24 11:46:10;;;;;;;11.23;5.47;;;;;;;;;;10315648;28;20027;-60
2022/12/24 11:51:22;;;;;;;10.77;6.13;;;;;;;;;;10315822;28;20042;-60
2022/12/24 11:56:41;;;;;;;9.98;5.85;;;;;;;;;;10328688;28;20045;-60
2022/12/24 12:01:48;;;;;;;11.07;5.90;;;;;;;;;;10316491;28;20117;-61
2022/12/24 12:06:51;;;;;;;12.25;5.80;;;;;;;;;;10306024;28;20104;-60
2022/12/24 12:11:57;;;;;;;10.23;5.95;;;;;;;;;;10315253;28;20478;-60
2022/12/24 12:17:03;;;;;;;8.18;5.30;;;;;;;;;;10317016;28;20035;-60
2022/12/24 12:22:05;;;;;;;8.63;5.55;;;;;;;;;;10323848;28;20174;-60
2022/12/24 12:27:14;;;;;;;16.40;6.07;;;;;;;;;;10325124;28;20043;-60
2022/12/24 12:32:40;;;;;;;10.27;5.55;;;;;;;;;;10325328;28;20116;-61
2022/12/24 12:37:43;;;;;;;9.32;5.72;;;;;;;;;;10310514;28;20521;-60
2022/12/24 12:43:03;;;;;;;10.70;6.25;;;;;;;;;;10313887;28;20549;-60
2022/12/24 12:48:13;;;;;;;7.35;5.40;;;;;;;;;;10317435;28;20041;-60
2022/12/24 12:53:19;;;;;;;8.10;5.78;;;;;;;;;;10325323;28;20030;-60
2022/12/24 12:58:25;;;;;;;8.23;5.65;;;;;;;;;;10324542;28;20018;-60
2022/12/24 13:03:34;;;;;;;7.00;5.38;;;;;;;;;;10316056;28;20145;-60
2022/12/24 13:08:57;;;;;;;9.15;5.28;;;;;;;;;;10321184;28;20023;-60
2022/12/24 13:14:00;;;;;;;12.38;5.40;;;;;;;;;;10325272;28;20046;-60
2022/12/24 13:19:03;;;;;;;10.23;5.28;;;;;;;;;;10323968;28;20062;-60
2022/12/24 13:24:13;;;;;;;10.52;5.50;;;;;;;;;;10315002;28;20038;-61
2022/12/24 13:29:32;;;;;;;6.60;5.10;;;;;;;;;;10318480;28;20465;-60
2022/12/24 13:34:35;;;;;;;8.48;5.35;;;;;;;;;;10315214;28;20649;-60
2022/12/24 13:39:54;;;;;;;6.32;4.95;;;;;;;;;;10321089;28;20398;-60
2022/12/24 13:45:14;;;;;;;6.82;4.60;;;;;;;;;;10319954;28;20034;-60
2022/12/24 13:50:34;;;;;;;7.30;4.93;;;;;;;;;;10320259;28;20030;-61
2022/12/24 13:55:34;;;;;;;6.90;4.70;;;;;;;;;;10319975;28;20026;-60
2022/12/24 14:00:50;;;;;;;9.63;5.10;;;;;;;;;;10317333;28;20043;-60
2022/12/24 14:05:54;;;;;;;7.05;5.00;;;;;;;;;;10308575;28;20076;-60
2022/12/24 14:11:00;;;;;;;7.85;4.82;;;;;;;;;;10322723;28;20069;-60
2022/12/24 14:16:02;;;;;;;5.97;4.82;;;;;;;;;;10309216;28;20046;-60
2022/12/24 14:21:03;;;;;;;9.27;5.78;;;;;;;;;;10312428;28;20026;-60
2022/12/24 14:26:10;;;;;;;7.97;5.00;;;;;;;;;;10321554;28;20046;-60
2022/12/24 14:31:13;;;;;;;6.68;5.00;;;;;;;;;;10309867;28;20033;-60
2022/12/24 14:36:17;;;;;;;6.20;4.93;;;;;;;;;;10297639;28;20026;-60
2022/12/24 14:41:22;;;;;;;8.68;4.97;;;;;;;;;;10315207;28;20062;-60
2022/12/24 14:46:23;;;;;;;7.60;5.28;;;;;;;;;;10314425;28;20035;-60
2022/12/24 14:51:38;;;;;;;7.18;5.30;;;;;;;;;;10314826;28;20033;-60
2022/12/24 14:56:39;;;;;;;6.75;4.88;;;;;;;;;;10314937;28;20034;-60
2022/12/24 15:01:39;;;;;;;7.03;5.13;;;;;;;;;;10316487;28;20030;-60
2022/12/24 15:06:42;;;;;;;7.28;5.30;;;;;;;;;;10305869;28;20026;-60
2022/12/24 15:11:43;;;;;;;8.07;5.07;;;;;;;;;;10321811;28;20022;-60
2022/12/24 15:16:50;;;;;;;7.30;5.13;;;;;;;;;;10326977;28;20502;-60
2022/12/24 15:21:51;;;;;;;7.82;5.35;;;;;;;;;;10310112;28;20062;-60
2022/12/24 15:26:52;;;;;;;7.50;4.88;;;;;;;;;;10366103;23;20073;-61
2022/12/24 15:31:57;;;;;;;6.65;5.10;;;;;;;;;;10406990;28;20105;-61
2022/12/24 15:37:01;;;;;;;7.60;5.60;;;;;;;;;;10408947;28;20547;-62
2022/12/24 15:42:35;;;;;;;7.88;5.20;;;;;;;;;;10408713;28;20029;-61
2022/12/24 15:47:36;;;;;;;7.10;4.43;;;;;;;;;;10403560;28;20113;-62
2022/12/24 15:52:39;;;;;;;7.82;5.13;;;;;;;;;;10407891;28;20120;-63
2022/12/24 15:57:39;;;;;;;6.25;5.38;;;;;;;;;;10407241;28;20052;-61
2022/12/24 16:02:40;;;;;;;7.53;4.80;;;;;;;;;;10402428;28;20137;-60
2022/12/24 16:08:05;;;;;;;9.48;4.68;;;;;;;;;;10407250;28;20021;-64
2022/12/24 16:13:12;;;;;;;9.45;5.07;;;;;;;;;;10405208;28;20059;-64
2022/12/24 16:18:17;;;;;;;7.05;5.70;;;;;;;;;;10407609;28;20100;-62
2022/12/24 16:23:19;;;;;;;7.20;5.15;;;;;;;;;;10401729;28;20087;-64
2022/12/24 16:28:20;;;;;;;7.72;5.47;;;;;;;;;;10395114;28;20048;-64
2022/12/24 16:33:22;;;;;;;8.38;5.20;;;;;;;;;;10402711;28;20033;-63
2022/12/24 16:38:22;;;;;;;6.35;5.13;;;;;;;;;;10372934;28;20026;-63
2022/12/24 16:48:43;;;;;;;8.57;6.20;;;;;;;;;;10398312;28;20119;-64
2022/12/24 16:53:43;;;;;;;10.65;7.45;;;;;;;;;;10391520;28;20021;-64
2022/12/24 16:58:44;;;;;;;16.27;8.40;;;;;;;;;;10403523;28;20088;-64
2022/12/24 17:03:44;;;;;;;14.45;8.27;;;;;;;;;;10401745;28;20033;-64
2022/12/24 17:08:44;;;;;;;12.77;8.05;;;;;;;;;;10387280;28;20030;-62
2022/12/24 17:13:44;;;;;;;11.32;7.85;;;;;;;;;;10394374;28;20029;-63
2022/12/24 17:18:45;;;;;;;13.73;8.27;;;;;;;;;;10385121;28;20022;-63
2022/12/24 17:23:45;;;;;;;14.82;8.15;;;;;;;;;;10395302;28;20091;-66
2022/12/24 17:28:45;;;;;;;14.27;8.10;;;;;;;;;;10381361;28;20060;-66
2022/12/24 17:33:47;;;;;;;14.52;8.75;;;;;;;;;;10379879;28;20034;-64
2022/12/24 17:38:48;;;;;;;12.55;7.85;;;;;;;;;;10391818;28;20418;-65
2022/12/24 17:43:48;;;;;;;11.27;7.80;;;;;;;;;;10402569;28;20144;-63
2022/12/24 17:48:49;;;;;;;11.03;7.97;;;;;;;;;;10386927;28;20412;-66
2022/12/24 17:53:49;;;;;;;12.30;8.15;;;;;;;;;;10397886;28;20860;-60
2022/12/24 17:58:50;;;;;;;19.00;8.63;;;;;;;;;;10401882;28;20052;-61
2022/12/24 18:03:51;;;;;;;18.58;8.60;;;;;;;;;;10389079;28;20065;-60
2022/12/24 18:08:51;;;;;;;17.30;8.43;;;;;;;;;;10400165;28;20025;-61
2022/12/24 18:13:52;;;;;;;20.02;8.05;;;;;;;;;;10392931;28;20026;-61
2022/12/24 18:18:53;;;;;;;22.67;7.45;;;;;;;;;;10399308;28;20389;-62
2022/12/24 18:23:55;;;;;;;18.27;7.55;;;;;;;;;;10401239;28;20457;-60
2022/12/24 18:28:56;;;;;;;30.77;8.73;;;;;;;;;;10397014;28;20652;-61
2022/12/24 18:33:57;;;;;;;31.50;10.18;;;;;;;;;;10394480;28;20096;-60
2022/12/24 18:38:57;;;;;;;26.80;9.77;;;;;;;;;;10392385;28;20040;-61
2022/12/24 18:43:58;;;;;;;29.92;10.02;;;;;;;;;;10390602;28;20438;-61
2022/12/24 18:48:59;;;;;;;29.52;10.35;;;;;;;;;;10404311;28;20523;-62
2022/12/24 18:54:01;;;;;;;22.60;10.68;;;;;;;;;;10411044;28;20076;-61
2022/12/24 18:59:02;;;;;;;25.92;11.88;;;;;;;;;;10410937;28;20021;-63
2022/12/24 19:04:02;;;;;;;19.30;10.63;;;;;;;;;;10411452;28;20160;-62
2022/12/24 19:09:02;;;;;;;19.25;10.52;;;;;;;;;;10411079;28;20025;-62
2022/12/24 19:14:04;;;;;;;26.05;11.43;;;;;;;;;;10409720;28;20132;-61
2022/12/24 19:19:05;;;;;;;19.33;9.65;;;;;;;;;;10410977;28;20139;-60
2022/12/24 19:24:09;;;;;;;21.63;10.18;;;;;;;;;;10410221;28;20033;-60
2022/12/24 19:29:09;;;;;;;20.10;10.65;;;;;;;;;;10410236;28;20053;-60
2022/12/24 19:34:09;;;;;;;20.10;10.13;;;;;;;;;;10408210;28;20025;-62
2022/12/24 19:39:10;;;;;;;19.80;10.07;;;;;;;;;;10410557;28;20397;-60
2022/12/24 19:44:10;;;;;;;17.47;10.03;;;;;;;;;;10408564;28;20398;-60
2022/12/24 19:49:11;;;;;;;15.90;9.20;;;;;;;;;;10401731;28;20389;-61
2022/12/24 19:54:11;;;;;;;20.17;10.03;;;;;;;;;;10397031;28;20033;-63
2022/12/24 19:59:11;;;;;;;21.25;10.38;;;;;;;;;;10400039;28;20072;-66
2022/12/24 20:04:12;;;;;;;18.77;9.70;;;;;;;;;;10408505;28;20121;-61
2022/12/24 20:09:13;;;;;;;17.80;9.95;;;;;;;;;;10396269;28;20034;-63
2022/12/24 20:14:13;;;;;;;16.45;9.40;;;;;;;;;;10408463;28;20034;-61
2022/12/24 20:19:14;;;;;;;18.33;10.13;;;;;;;;;;10408849;28;20021;-60
2022/12/24 20:24:14;;;;;;;18.83;10.43;;;;;;;;;;10394074;28;20063;-63
2022/12/24 20:29:15;;;;;;;15.70;9.05;;;;;;;;;;10404368;28;20045;-64
2022/12/24 20:34:15;;;;;;;17.23;10.60;;;;;;;;;;10381277;28;20029;-64
2022/12/24 20:39:15;;;;;;;19.92;9.85;;;;;;;;;;10399891;28;20308;-60
2022/12/24 20:44:16;;;;;;;14.40;9.73;;;;;;;;;;10383138;28;20036;-62
2022/12/24 20:49:16;;;;;;;20.90;10.68;;;;;;;;;;10407371;28;20029;-60
2022/12/24 20:54:16;;;;;;;16.13;9.83;;;;;;;;;;10404867;28;20017;-60
2022/12/24 20:59:17;;;;;;;15.77;9.77;;;;;;;;;;10405456;28;20018;-60
2022/12/24 21:04:17;;;;;;;18.33;10.47;;;;;;;;;;10405846;28;20120;-61
2022/12/24 21:09:17;;;;;;;18.52;10.30;;;;;;;;;;10405491;28;20037;-60
2022/12/24 21:14:20;;;;;;;15.93;10.15;;;;;;;;;;10404513;28;20027;-61
2022/12/24 21:19:21;;;;;;;16.77;9.93;;;;;;;;;;10405474;28;20022;-62
2022/12/24 21:24:21;;;;;;;14.60;10.13;;;;;;;;;;10392676;28;20508;-61
2022/12/24 21:29:21;;;;;;;17.02;9.85;;;;;;;;;;10401321;28;20161;-66
2022/12/24 21:34:21;;;;;;;17.30;9.98;;;;;;;;;;10402089;28;20033;-62
2022/12/24 21:39:22;;;;;;;14.20;10.13;;;;;;;;;;10386923;28;20037;-64
2022/12/24 21:44:22;;;;;;;18.20;10.20;;;;;;;;;;10401978;28;20037;-62
2022/12/24 21:54:41;;;;;;;17.48;9.70;;;;;;;;;;10405773;28;20029;-61
2022/12/24 21:59:42;;;;;;;17.00;10.50;;;;;;;;;;10403372;28;20029;-62
2022/12/24 22:04:42;;;;;;;15.80;10.68;;;;;;;;;;10403568;28;20380;-61
2022/12/24 22:15:04;;;;;;;14.00;9.43;;;;;;;;;;10402358;28;20128;-61
2022/12/24 22:20:04;;;;;;;18.05;10.55;;;;;;;;;;10406021;28;20381;-60
2022/12/24 22:25:05;;;;;;;13.57;9.48;;;;;;;;;;10412469;28;20025;-61
2022/12/24 22:30:06;;;;;;;14.82;9.27;;;;;;;;;;10411371;28;20414;-60
2022/12/24 22:35:06;;;;;;;19.33;9.75;;;;;;;;;;10396064;28;20041;-61
2022/12/24 22:40:07;;;;;;;15.97;10.27;;;;;;;;;;10412940;28;20393;-60
2022/12/24 22:45:08;;;;;;;15.07;10.15;;;;;;;;;;10409545;28;20487;-60
2022/12/24 22:50:09;;;;;;;14.88;10.00;;;;;;;;;;10410145;28;20061;-67
2022/12/24 22:55:09;;;;;;;18.25;10.05;;;;;;;;;;10398423;28;20528;-65
2022/12/24 23:00:12;;;;;;;17.63;11.43;;;;;;;;;;10398092;28;20112;-65
2022/12/24 23:05:13;;;;;;;11.85;8.90;;;;;;;;;;10397332;28;20048;-61
2022/12/24 23:10:13;;;;;;;13.60;9.73;;;;;;;;;;10411089;28;20464;-64
2022/12/24 23:15:14;;;;;;;13.70;9.87;;;;;;;;;;10408556;28;20086;-65
2022/12/24 23:20:14;;;;;;;13.70;8.67;;;;;;;;;;10408589;28;20108;-65
2022/12/24 23:25:14;;;;;;;16.83;10.70;;;;;;;;;;10409769;28;20128;-68
2022/12/24 23:30:15;;;;;;;12.52;9.55;;;;;;;;;;10407541;28;20177;-68
2022/12/24 23:35:15;;;;;;;16.30;9.98;;;;;;;;;;10407478;28;20029;-68
2022/12/24 23:40:16;;;;;;;15.10;9.65;;;;;;;;;;10409138;28;20029;-68
2022/12/24 23:45:16;;;;;;;16.10;10.23;;;;;;;;;;10410484;28;20056;-66
2022/12/24 23:50:16;;;;;;;16.58;9.73;;;;;;;;;;10408333;28;20037;-67
2022/12/24 23:55:17;;;;;;;17.17;9.63;;;;;;;;;;10408911;28;20377;-68
